Time;durP1;ratioP1;P1;durP2;ratioP2;P2;SDS_P1;SDS_P2;PMS_P1;PMS_P2;Temp;Humidity;BMP_temperature;BMP_pressure;BME280_temperature;BME280_humidity;BME280_pressure;Samples;Min_cycle;Max_cycle;Signal;HPM_P1;HPM_P2
2022/07/26 00:00:21;;;;;;;9.38;1.65;;;18.20;99.90;;;;;;5077653;28;20056;-61
2022/07/26 00:02:47;;;;;;;9.05;2.28;;;18.30;99.90;;;;;;5060820;28;20038;-61
2022/07/26 00:05:13;;;;;;;8.43;2.53;;;18.50;99.90;;;;;;5077421;28;20036;-61
2022/07/26 00:07:39;;;;;;;8.15;2.13;;;18.40;99.90;;;;;;5078695;28;20269;-60
2022/07/26 00:10:06;;;;;;;6.82;1.92;;;18.40;99.90;;;;;;5078624;28;20047;-60
2022/07/26 00:12:32;;;;;;;8.02;2.10;;;18.40;99.90;;;;;;5078052;28;20029;-61
2022/07/26 00:14:58;;;;;;;9.07;2.45;;;18.50;99.90;;;;;;5077820;28;20071;-60
2022/07/26 00:17:24;;;;;;;8.27;1.92;;;18.50;99.90;;;;;;5077289;28;20075;-61
2022/07/26 00:19:50;;;;;;;10.85;2.13;;;18.40;99.90;;;;;;5060640;28;20304;-61
2022/07/26 00:22:34;;;;;;;11.77;2.10;;;18.40;99.90;;;;;;5077828;28;20028;-60
2022/07/26 00:25:02;;;;;;;10.93;2.15;;;18.30;99.90;;;;;;5077787;28;20331;-61
2022/07/26 00:27:28;;;;;;;11.70;2.40;;;18.20;99.90;;;;;;5060326;28;20388;-60
2022/07/26 00:29:54;;;;;;;9.38;2.30;;;18.30;99.90;;;;;;5077664;28;20063;-61
2022/07/26 00:32:20;;;;;;;9.95;2.55;;;18.40;99.90;;;;;;5078253;28;20373;-61
2022/07/26 00:34:45;;;;;;;12.43;2.47;;;18.40;99.90;;;;;;5077514;28;20040;-60
2022/07/26 00:37:11;;;;;;;8.35;2.13;;;18.30;99.90;;;;;;5078142;28;20043;-60
2022/07/26 00:39:37;;;;;;;11.85;2.45;;;18.30;99.90;;;;;;5077514;28;20029;-61
2022/07/26 00:42:03;;;;;;;8.70;2.40;;;18.40;99.90;;;;;;5077781;28;20047;-61
2022/07/26 00:44:39;;;;;;;9.40;2.95;;;18.40;99.90;;;;;;5077499;28;20403;-60
2022/07/26 00:47:05;;;;;;;9.77;2.80;;;18.40;99.90;;;;;;5076713;28;20024;-61
2022/07/26 00:49:31;;;;;;;8.73;2.38;;;18.50;99.90;;;;;;5076745;28;20366;-59
2022/07/26 00:51:57;;;;;;;7.72;2.47;;;18.50;99.90;;;;;;5077250;28;20043;-60
2022/07/26 00:54:23;;;;;;;10.45;2.63;;;18.60;99.90;;;;;;5077088;28;20044;-61
2022/07/26 00:56:49;;;;;;;12.07;2.47;;;18.60;99.90;;;;;;5077139;28;20303;-59
2022/07/26 00:59:15;;;;;;;12.27;2.40;;;18.30;99.90;;;;;;5077201;28;20032;-60
2022/07/26 01:01:40;;;;;;;7.13;2.65;;;18.30;99.90;;;;;;5077196;28;20037;-60
2022/07/26 01:04:06;;;;;;;11.40;2.97;;;18.30;99.90;;;;;;5077119;28;20028;-60
2022/07/26 01:06:32;;;;;;;13.85;3.05;;;18.40;99.90;;;;;;5075499;28;20106;-60
2022/07/26 01:08:58;;;;;;;11.98;2.38;;;18.40;99.90;;;;;;5076323;28;20036;-60
2022/07/26 01:11:24;;;;;;;9.80;2.63;;;18.40;99.90;;;;;;5076954;28;20044;-60
2022/07/26 01:13:50;;;;;;;9.32;2.33;;;18.40;99.90;;;;;;5076211;28;20121;-60
2022/07/26 01:16:16;;;;;;;8.07;2.40;;;18.50;99.90;;;;;;5077075;28;20097;-60
2022/07/26 01:18:42;;;;;;;12.05;2.75;;;18.40;99.90;;;;;;5076184;28;20039;-60
2022/07/26 01:21:09;;;;;;;11.18;2.70;;;18.40;99.90;;;;;;5076331;28;20170;-60
2022/07/26 01:23:36;;;;;;;15.27;3.78;;;18.40;99.90;;;;;;5076127;28;20037;-60
2022/07/26 01:26:03;;;;;;;10.95;2.70;;;18.30;99.90;;;;;;5077305;28;20526;-60
2022/07/26 01:28:28;;;;;;;8.30;2.50;;;18.40;99.90;;;;;;5077362;28;20036;-60
2022/07/26 01:30:54;;;;;;;12.93;2.50;;;18.40;99.90;;;;;;5077503;28;20037;-60
2022/07/26 01:33:20;;;;;;;8.90;2.70;;;18.40;99.90;;;;;;5076120;28;20051;-61
2022/07/26 01:35:46;;;;;;;10.35;2.50;;;18.30;99.90;;;;;;5076229;28;20033;-61
2022/07/26 01:38:12;;;;;;;13.80;2.72;;;18.30;99.90;;;;;;5076184;28;20033;-60
2022/07/26 01:40:38;;;;;;;11.55;2.95;;;18.50;99.90;;;;;;5076815;28;20029;-60
2022/07/26 01:43:04;;;;;;;10.07;2.88;;;18.50;99.90;;;;;;5076790;28;20039;-60
2022/07/26 01:45:30;;;;;;;6.47;2.53;;;18.40;99.90;;;;;;5076723;28;20028;-61
2022/07/26 01:47:56;;;;;;;11.27;2.88;;;18.50;99.90;;;;;;5076651;28;20032;-61
2022/07/26 01:50:22;;;;;;;8.35;2.25;;;18.50;99.90;;;;;;5075905;28;20289;-60
2022/07/26 01:52:47;;;;;;;13.25;3.47;;;18.60;99.90;;;;;;5076039;28;20296;-63
2022/07/26 01:55:13;;;;;;;11.00;2.55;;;18.50;99.90;;;;;;5076529;28;20071;-61
2022/07/26 01:57:39;;;;;;;12.43;3.00;;;18.50;99.90;;;;;;5076459;28;20056;-61
2022/07/26 02:00:06;;;;;;;9.35;2.70;;;18.60;99.90;;;;;;5076665;28;20448;-61
2022/07/26 02:02:33;;;;;;;11.18;2.78;;;18.80;99.90;;;;;;5076640;28;20278;-59
2022/07/26 02:04:58;;;;;;;13.18;3.17;;;18.80;99.90;;;;;;5075909;28;20117;-61
2022/07/26 02:07:26;;;;;;;13.30;2.92;;;18.90;99.90;;;;;;5076544;28;20032;-61
2022/07/26 02:09:52;;;;;;;12.27;3.30;;;18.90;99.90;;;;;;5076679;28;20101;-61
2022/07/26 02:12:18;;;;;;;11.18;2.70;;;19.10;99.90;;;;;;5076081;28;20335;-60
2022/07/26 02:14:43;;;;;;;11.75;3.00;;;18.90;99.90;;;;;;5075726;28;20041;-61
2022/07/26 02:17:10;;;;;;;17.27;3.30;;;18.80;99.90;;;;;;5076727;28;20308;-60
2022/07/26 02:19:36;;;;;;;9.32;2.90;;;18.90;99.90;;;;;;5080194;28;20120;-61
2022/07/26 02:22:02;;;;;;;14.05;3.72;;;18.80;99.90;;;;;;5080247;28;20131;-59
2022/07/26 02:24:28;;;;;;;11.60;2.97;;;18.80;99.90;;;;;;5080039;28;20039;-59
2022/07/26 02:26:55;;;;;;;16.77;3.33;;;18.90;99.90;;;;;;5080107;28;20032;-58
2022/07/26 02:29:21;;;;;;;11.75;3.05;;;19.00;99.90;;;;;;5080024;28;20062;-58
2022/07/26 02:31:46;;;;;;;12.93;3.28;;;19.00;99.90;;;;;;5080002;28;20040;-59
2022/07/26 02:34:12;;;;;;;9.10;3.00;;;18.90;99.90;;;;;;5079343;28;20033;-58
2022/07/26 02:36:38;;;;;;;11.77;3.38;;;18.90;99.90;;;;;;5080410;28;20343;-58
2022/07/26 02:39:04;;;;;;;14.40;3.00;;;19.00;99.90;;;;;;5062436;28;20033;-59
2022/07/26 02:41:30;;;;;;;13.60;3.30;;;19.00;99.90;;;;;;5079841;28;20024;-64
2022/07/26 02:43:56;;;;;;;12.90;3.08;;;18.90;99.90;;;;;;5029402;28;20322;-61
2022/07/26 02:46:22;;;;;;;14.45;3.33;;;19.00;99.90;;;;;;5080289;28;20055;-60
2022/07/26 02:48:48;;;;;;;19.27;3.75;;;19.10;99.90;;;;;;5079634;28;20028;-60
2022/07/26 02:51:14;;;;;;;21.13;3.45;;;19.10;99.90;;;;;;5079603;28;20047;-58
2022/07/26 02:53:39;;;;;;;13.80;3.28;;;19.10;99.90;;;;;;5078790;28;20036;-59
2022/07/26 02:56:05;;;;;;;16.40;3.65;;;18.90;99.90;;;;;;5079340;28;20021;-59
2022/07/26 02:58:31;;;;;;;11.88;3.70;;;18.80;99.90;;;;;;5079621;28;20041;-60
2022/07/26 03:00:57;;;;;;;12.70;3.60;;;18.80;99.90;;;;;;5079488;28;20032;-60
2022/07/26 03:03:23;;;;;;;13.98;3.90;;;18.80;99.90;;;;;;5079537;28;20029;-59
2022/07/26 03:05:49;;;;;;;14.30;3.40;;;18.60;99.90;;;;;;5079392;28;20032;-61
2022/07/26 03:08:15;;;;;;;15.48;3.67;;;18.60;99.90;;;;;;5078635;28;20086;-61
2022/07/26 03:10:40;;;;;;;13.57;3.17;;;18.60;99.90;;;;;;5079268;28;20068;-60
2022/07/26 03:13:06;;;;;;;16.95;4.13;;;18.60;99.90;;;;;;5078375;28;20395;-60
2022/07/26 03:15:32;;;;;;;13.15;3.75;;;18.70;99.90;;;;;;5079175;28;20021;-59
2022/07/26 03:17:58;;;;;;;13.02;3.75;;;18.80;99.90;;;;;;5079136;28;20043;-60
2022/07/26 03:20:25;;;;;;;14.52;3.20;;;18.90;99.90;;;;;;5079115;28;20033;-60
2022/07/26 03:22:51;;;;;;;18.27;3.90;;;18.90;99.90;;;;;;5079086;28;20025;-60
2022/07/26 03:25:17;;;;;;;14.68;3.28;;;19.00;99.90;;;;;;5078971;28;20036;-60
2022/07/26 03:27:42;;;;;;;16.27;3.75;;;19.00;99.90;;;;;;5079029;28;20064;-61
2022/07/26 03:30:09;;;;;;;13.85;3.75;;;19.10;99.90;;;;;;5077800;28;20044;-60
2022/07/26 03:32:35;;;;;;;15.32;3.95;;;19.10;99.90;;;;;;5078808;28;20048;-60
2022/07/26 03:35:01;;;;;;;13.73;3.33;;;19.10;99.90;;;;;;5078707;28;20308;-61
2022/07/26 03:37:27;;;;;;;16.00;3.92;;;19.00;99.90;;;;;;5078000;28;20143;-60
2022/07/26 03:39:54;;;;;;;12.80;3.97;;;19.10;99.90;;;;;;5078664;28;20065;-60
2022/07/26 03:42:20;;;;;;;13.73;3.83;;;19.00;99.90;;;;;;5078476;28;20075;-60
2022/07/26 03:44:46;;;;;;;19.80;4.30;;;18.80;99.90;;;;;;5077881;28;20044;-59
2022/07/26 03:47:12;;;;;;;15.80;4.10;;;18.80;99.90;;;;;;5061513;28;20158;-60
2022/07/26 03:49:38;;;;;;;14.20;4.28;;;18.90;99.90;;;;;;5078491;28;20033;-60
2022/07/26 03:52:04;;;;;;;15.98;4.22;;;18.90;99.90;;;;;;5078443;28;20321;-60
2022/07/26 03:54:30;;;;;;;15.43;3.75;;;18.90;99.90;;;;;;5078257;28;20025;-60
2022/07/26 03:56:55;;;;;;;12.65;4.15;;;19.10;99.90;;;;;;5078246;28;20063;-62
2022/07/26 03:59:23;;;;;;;18.17;4.13;;;19.00;99.90;;;;;;5078309;28;20308;-61
2022/07/26 04:01:49;;;;;;;17.33;4.13;;;18.90;99.90;;;;;;5078111;28;20117;-61
2022/07/26 04:04:17;;;;;;;16.02;3.72;;;18.70;99.90;;;;;;5077723;28;20040;-61
2022/07/26 04:06:44;;;;;;;20.52;4.40;;;18.70;99.90;;;;;;5077036;28;20040;-61
2022/07/26 04:09:12;;;;;;;13.27;3.72;;;18.80;99.90;;;;;;5077849;28;20025;-61
2022/07/26 04:11:39;;;;;;;18.40;4.50;;;18.80;99.90;;;;;;5078086;28;20056;-61
2022/07/26 04:14:05;;;;;;;13.73;3.80;;;18.80;99.90;;;;;;5077973;28;20099;-60
2022/07/26 04:16:31;;;;;;;16.52;4.10;;;18.80;99.90;;;;;;5078046;28;20055;-61
2022/07/26 04:18:57;;;;;;;14.38;4.13;;;18.90;99.90;;;;;;5077532;28;20079;-59
2022/07/26 04:21:23;;;;;;;14.52;3.85;;;19.00;99.90;;;;;;5078529;28;20107;-62
2022/07/26 04:23:49;;;;;;;13.20;3.95;;;19.10;99.90;;;;;;5077081;28;20102;-61
2022/07/26 04:26:16;;;;;;;13.27;4.20;;;19.10;99.90;;;;;;5077029;28;20028;-61
2022/07/26 04:28:42;;;;;;;12.65;4.25;;;19.00;99.90;;;;;;5077777;28;20058;-61
2022/07/26 04:31:08;;;;;;;12.43;3.60;;;18.90;99.90;;;;;;5077473;28;20029;-62
2022/07/26 04:33:34;;;;;;;12.88;3.63;;;19.00;99.90;;;;;;5077621;28;20422;-61
2022/07/26 04:36:00;;;;;;;10.85;3.80;;;19.20;99.90;;;;;;5077669;28;20412;-61
2022/07/26 04:38:25;;;;;;;13.15;3.90;;;19.20;99.90;;;;;;5076957;28;20025;-62
2022/07/26 04:40:52;;;;;;;14.70;4.00;;;19.30;99.90;;;;;;5077302;28;20024;-61
2022/07/26 04:43:18;;;;;;;13.02;3.60;;;19.30;99.90;;;;;;5076772;28;20064;-60
2022/07/26 04:45:45;;;;;;;14.98;4.03;;;19.30;99.90;;;;;;5076757;28;20328;-61
2022/07/26 04:48:11;;;;;;;12.75;4.07;;;19.10;99.90;;;;;;5076617;28;20028;-61
2022/07/26 04:50:37;;;;;;;12.75;3.78;;;19.00;99.90;;;;;;5077912;28;20376;-60
2022/07/26 04:53:04;;;;;;;16.08;4.45;;;19.00;99.90;;;;;;5077230;28;20039;-60
2022/07/26 04:55:29;;;;;;;15.63;3.90;;;19.20;99.90;;;;;;5077113;28;20032;-60
2022/07/26 04:57:55;;;;;;;12.77;3.10;;;19.30;99.90;;;;;;5076400;28;20044;-61
2022/07/26 05:00:24;;;;;;;13.02;3.75;;;19.30;99.90;;;;;;5076552;28;20036;-59
2022/07/26 05:02:52;;;;;;;14.80;4.20;;;19.40;99.90;;;;;;5077145;28;20071;-62
2022/07/26 05:05:19;;;;;;;9.88;3.67;;;19.40;99.90;;;;;;5077700;28;20036;-61
2022/07/26 05:07:47;;;;;;;11.68;3.33;;;19.40;99.90;;;;;;5077078;28;20277;-60
2022/07/26 05:10:15;;;;;;;11.13;3.67;;;19.50;99.90;;;;;;5077146;28;20090;-61
2022/07/26 05:12:41;;;;;;;14.82;3.40;;;19.50;99.90;;;;;;5076958;28;20412;-61
2022/07/26 05:15:07;;;;;;;12.18;3.38;;;19.40;99.90;;;;;;5076948;28;20044;-61
2022/07/26 05:17:33;;;;;;;9.35;3.42;;;19.50;99.90;;;;;;5076311;28;20071;-61
2022/07/26 05:19:59;;;;;;;10.90;3.47;;;19.40;99.90;;;;;;5076288;28;20285;-60
2022/07/26 05:22:25;;;;;;;12.20;3.15;;;19.50;99.90;;;;;;5077180;28;20024;-61
2022/07/26 05:24:51;;;;;;;12.95;4.13;;;19.50;99.90;;;;;;5076900;28;20040;-60
2022/07/26 05:27:17;;;;;;;9.57;3.47;;;19.60;99.90;;;;;;5076187;28;20044;-60
2022/07/26 05:29:43;;;;;;;13.10;4.00;;;19.50;99.90;;;;;;5059485;28;20432;-60
2022/07/26 05:32:08;;;;;;;17.67;4.03;;;19.60;99.90;;;;;;5076006;28;20039;-60
2022/07/26 05:34:34;;;;;;;11.70;3.53;;;19.80;99.90;;;;;;5076751;28;20082;-60
2022/07/26 05:37:00;;;;;;;11.30;4.10;;;19.90;99.90;;;;;;5077108;28;20040;-60
2022/07/26 05:39:26;;;;;;;12.98;3.78;;;19.70;99.90;;;;;;5076696;28;20025;-60
2022/07/26 05:41:51;;;;;;;13.95;4.05;;;19.60;99.90;;;;;;5076080;28;20038;-59
2022/07/26 05:44:18;;;;;;;12.82;4.00;;;19.70;99.90;;;;;;5076043;28;20037;-60
2022/07/26 05:46:44;;;;;;;16.45;4.53;;;19.70;99.90;;;;;;5059467;28;20040;-61
2022/07/26 05:49:09;;;;;;;13.75;3.85;;;19.70;99.90;;;;;;5076007;28;20044;-62
2022/07/26 05:51:35;;;;;;;14.50;4.45;;;19.60;99.90;;;;;;5076635;28;20304;-62
2022/07/26 05:54:01;;;;;;;10.93;3.83;;;19.40;99.90;;;;;;5079165;28;20064;-60
2022/07/26 05:56:27;;;;;;;12.05;4.40;;;19.50;99.90;;;;;;5079732;28;20428;-60
2022/07/26 05:58:52;;;;;;;10.95;4.32;;;19.80;99.90;;;;;;5080662;28;20043;-61
2022/07/26 06:01:18;;;;;;;16.95;5.35;;;20.00;99.90;;;;;;5080651;28;20043;-61
2022/07/26 06:03:44;;;;;;;13.07;4.47;;;19.80;99.90;;;;;;5063252;28;20089;-61
2022/07/26 06:06:10;;;;;;;13.00;4.07;;;19.90;99.90;;;;;;5080581;28;20300;-61
2022/07/26 06:08:36;;;;;;;9.05;4.20;;;19.90;99.90;;;;;;5063264;28;20044;-62
2022/07/26 06:11:05;;;;;;;13.13;3.80;;;20.10;99.90;;;;;;5079698;28;20036;-61
2022/07/26 06:13:31;;;;;;;11.77;3.90;;;20.00;99.90;;;;;;5080318;28;20093;-60
2022/07/26 06:15:57;;;;;;;14.10;4.88;;;20.10;99.90;;;;;;5063072;28;20350;-62
2022/07/26 06:18:23;;;;;;;10.68;3.75;;;20.10;99.90;;;;;;5062802;28;20036;-60
2022/07/26 06:20:49;;;;;;;12.10;3.83;;;19.90;99.90;;;;;;5062822;28;20029;-61
2022/07/26 06:23:15;;;;;;;10.45;3.78;;;19.90;99.90;;;;;;5079330;28;20044;-61
2022/07/26 06:25:41;;;;;;;11.15;4.35;;;19.80;99.90;;;;;;5062687;28;20392;-60
2022/07/26 06:28:09;;;;;;;13.25;4.13;;;19.90;99.90;;;;;;5079340;28;20112;-62
2022/07/26 06:30:36;;;;;;;11.02;3.72;;;20.30;99.90;;;;;;5079398;28;20037;-60
2022/07/26 06:33:02;;;;;;;8.43;3.30;;;20.60;99.90;;;;;;5079935;28;20063;-61
2022/07/26 06:35:29;;;;;;;8.80;2.80;;;20.80;99.90;;;;;;5078991;28;20095;-60
2022/07/26 06:37:56;;;;;;;6.63;2.65;;;20.90;99.90;;;;;;5062782;28;20300;-59
2022/07/26 06:40:22;;;;;;;8.82;2.20;;;21.00;99.90;;;;;;5079762;28;20455;-60
2022/07/26 06:42:48;;;;;;;7.00;2.30;;;21.10;99.90;;;;;;5079763;28;20144;-62
2022/07/26 06:45:13;;;;;;;8.52;2.15;;;21.10;99.90;;;;;;5079006;28;20040;-60
2022/07/26 06:47:39;;;;;;;9.68;2.42;;;21.10;99.90;;;;;;5079718;28;20357;-60
2022/07/26 06:50:06;;;;;;;9.32;2.53;;;21.10;99.90;;;;;;5079623;28;20032;-60
2022/07/26 06:52:32;;;;;;;6.75;2.58;;;21.20;99.90;;;;;;5079586;28;20033;-61
2022/07/26 06:54:58;;;;;;;7.72;2.20;;;21.30;99.90;;;;;;5079554;28;20047;-61
2022/07/26 06:57:25;;;;;;;8.43;2.42;;;21.40;99.90;;;;;;5078585;28;20047;-60
2022/07/26 06:59:51;;;;;;;7.30;2.10;;;21.40;99.90;;;;;;5078792;28;20040;-61
2022/07/26 07:02:17;;;;;;;7.63;2.88;;;21.40;99.90;;;;;;5079415;28;20060;-61
2022/07/26 07:04:43;;;;;;;7.97;1.98;;;21.40;99.90;;;;;;5079485;28;20068;-61
2022/07/26 07:07:09;;;;;;;7.53;2.20;;;21.50;99.90;;;;;;5079343;28;20046;-60
2022/07/26 07:09:36;;;;;;;7.38;1.90;;;21.30;99.90;;;;;;5079402;28;20043;-60
2022/07/26 07:12:03;;;;;;;5.50;1.77;;;21.40;99.90;;;;;;5079528;28;20029;-60
2022/07/26 07:14:29;;;;;;;7.10;1.90;;;21.30;99.90;;;;;;5079174;28;20036;-60
2022/07/26 07:16:55;;;;;;;6.97;1.83;;;21.40;99.90;;;;;;5079204;28;20408;-60
2022/07/26 07:19:22;;;;;;;5.90;1.75;;;21.50;99.90;;;;;;5079406;28;20293;-61
2022/07/26 07:21:48;;;;;;;8.55;2.10;;;21.60;99.90;;;;;;5079140;28;20029;-61
2022/07/26 07:24:14;;;;;;;10.05;2.15;;;21.80;99.90;;;;;;5078947;28;20063;-60
2022/07/26 07:26:40;;;;;;;10.25;2.13;;;21.90;99.90;;;;;;5078340;28;20028;-61
2022/07/26 07:29:08;;;;;;;5.75;1.65;;;21.80;99.90;;;;;;5078983;28;20032;-61
2022/07/26 07:31:34;;;;;;;8.80;2.00;;;21.80;99.90;;;;;;5078325;28;20396;-60
2022/07/26 07:34:00;;;;;;;6.95;1.92;;;22.00;99.90;;;;;;5078744;28;20190;-61
2022/07/26 07:36:26;;;;;;;5.00;1.67;;;21.80;99.90;;;;;;5079339;28;20399;-62
2022/07/26 07:38:52;;;;;;;4.70;1.80;;;21.60;99.90;;;;;;5078749;28;20022;-59
2022/07/26 07:41:18;;;;;;;8.27;2.38;;;21.50;99.90;;;;;;5078118;28;20028;-61
2022/07/26 07:43:43;;;;;;;3.50;1.30;;;21.80;99.90;;;;;;5077987;28;20090;-60
2022/07/26 07:46:09;;;;;;;6.38;1.88;;;21.90;99.90;;;;;;5078491;28;20028;-61
2022/07/26 07:48:36;;;;;;;4.68;1.58;;;21.90;99.90;;;;;;5061324;28;20032;-62
2022/07/26 07:51:02;;;;;;;6.10;1.80;;;21.90;99.90;;;;;;5044636;28;20064;-61
2022/07/26 07:53:28;;;;;;;10.45;2.10;;;21.90;99.90;;;;;;5078638;28;20064;-61
2022/07/26 07:55:53;;;;;;;5.68;1.65;;;22.20;99.90;;;;;;5078324;28;20047;-62
2022/07/26 07:58:20;;;;;;;9.73;1.70;;;22.40;99.90;;;;;;5078491;28;20055;-61
2022/07/26 08:00:46;;;;;;;6.97;1.70;;;22.10;99.90;;;;;;5078196;28;20032;-62
2022/07/26 08:03:12;;;;;;;4.28;1.30;;;22.10;99.90;;;;;;5078261;28;20025;-62
2022/07/26 08:05:38;;;;;;;6.63;1.60;;;21.90;99.90;;;;;;5078830;28;20036;-58
2022/07/26 08:08:04;;;;;;;8.18;1.83;;;22.30;99.90;;;;;;5078178;28;20040;-62
2022/07/26 08:10:30;;;;;;;5.28;1.40;;;22.60;99.90;;;;;;5078188;28;20032;-61
2022/07/26 08:12:55;;;;;;;7.63;2.00;;;22.40;99.90;;;;;;5078082;28;20029;-60
2022/07/26 08:15:22;;;;;;;4.78;1.30;;;22.20;99.90;;;;;;5076752;28;20111;-60
2022/07/26 08:17:49;;;;;;;7.50;1.65;;;22.40;99.90;;;;;;5077324;28;20082;-59
2022/07/26 08:20:15;;;;;;;5.05;1.60;;;22.60;99.90;;;;;;5077938;28;20035;-61
2022/07/26 08:22:41;;;;;;;6.30;1.88;;;22.50;99.90;;;;;;5077917;28;20072;-61
2022/07/26 08:25:08;;;;;;;8.18;1.98;;;22.70;99.90;;;;;;5077057;28;20133;-60
2022/07/26 08:27:34;;;;;;;3.70;1.50;;;22.50;99.90;;;;;;5077870;28;20043;-62
2022/07/26 08:29:59;;;;;;;5.10;1.60;;;22.50;99.90;;;;;;5077745;28;20339;-60
2022/07/26 08:32:25;;;;;;;3.25;1.60;;;22.20;99.90;;;;;;5077779;28;20469;-62
2022/07/26 08:34:51;;;;;;;7.15;1.80;;;22.30;99.90;;;;;;5077723;28;20033;-62
2022/07/26 08:37:16;;;;;;;3.33;1.45;;;22.40;99.90;;;;;;5076997;28;20044;-62
2022/07/26 08:39:42;;;;;;;5.00;1.20;;;22.70;99.90;;;;;;5077646;28;20028;-59
2022/07/26 08:42:21;;;;;;;5.22;1.25;;;22.50;99.90;;;;;;5077555;28;20040;-61
2022/07/26 08:44:48;;;;;;;5.45;1.50;;;22.80;99.90;;;;;;5077592;28;20029;-62
2022/07/26 08:47:17;;;;;;;8.20;1.92;;;22.80;99.90;;;;;;5076758;28;20040;-60
2022/07/26 08:49:44;;;;;;;5.47;1.35;;;22.90;99.90;;;;;;5077372;28;20032;-61
2022/07/26 08:52:12;;;;;;;5.43;1.10;;;23.00;99.90;;;;;;5077238;28;20281;-61
2022/07/26 08:54:56;;;;;;;4.55;1.52;;;22.90;99.90;;;;;;5077150;28;20032;-59
2022/07/26 08:57:22;;;;;;;4.18;1.50;;;23.20;99.90;;;;;;5077103;28;20351;-60
2022/07/26 09:00:24;;;;;;;4.03;1.30;;;23.40;99.90;;;;;;5076606;28;20024;-60
2022/07/26 09:02:51;;;;;;;4.40;1.60;;;23.90;99.90;;;;;;5076515;28;20396;-62
2022/07/26 09:05:19;;;;;;;6.82;1.58;;;23.40;99.90;;;;;;5077161;28;20040;-61
2022/07/26 09:07:46;;;;;;;4.60;1.58;;;23.40;99.90;;;;;;5077089;28;20071;-62
2022/07/26 09:10:15;;;;;;;5.60;1.60;;;22.40;99.90;;;;;;5076475;28;20040;-64
2022/07/26 09:12:42;;;;;;;4.15;1.38;;;22.40;99.90;;;;;;5076286;28;20028;-60
2022/07/26 09:15:20;;;;;;;6.63;1.77;;;22.30;99.90;;;;;;5076948;28;20042;-61
2022/07/26 09:17:49;;;;;;;4.28;1.40;;;22.50;99.90;;;;;;5076981;28;20025;-61
2022/07/26 09:20:17;;;;;;;7.57;1.40;;;22.30;99.90;;;;;;5076979;28;20039;-61
2022/07/26 09:23:18;;;;;;;5.32;1.40;;;22.30;99.90;;;;;;5077297;28;20297;-62
2022/07/26 09:25:45;;;;;;;4.05;1.20;;;22.30;99.90;;;;;;5075544;28;20037;-61
2022/07/26 09:28:28;;;;;;;7.60;1.83;;;22.20;99.90;;;;;;5075691;28;20052;-61
2022/07/26 09:30:57;;;;;;;5.85;1.48;;;22.40;99.90;;;;;;5076932;28;20408;-61
2022/07/26 09:33:23;;;;;;;5.55;1.33;;;22.60;99.90;;;;;;5076805;28;20062;-60
2022/07/26 09:36:01;;;;;;;8.60;1.80;;;22.70;99.90;;;;;;5076915;28;20302;-61
2022/07/26 09:38:41;;;;;;;7.20;2.10;;;22.70;99.90;;;;;;5077077;28;20036;-61
2022/07/26 09:41:25;;;;;;;6.43;1.52;;;22.80;99.90;;;;;;5076931;28;20032;-62
2022/07/26 09:43:51;;;;;;;5.50;1.40;;;22.60;99.90;;;;;;5076815;28;20107;-62
2022/07/26 09:46:17;;;;;;;6.35;1.70;;;22.50;99.90;;;;;;5076720;28;20048;-61
2022/07/26 09:48:43;;;;;;;6.90;2.08;;;22.50;99.90;;;;;;5076625;28;20033;-62
2022/07/26 09:51:09;;;;;;;5.38;1.65;;;22.40;99.90;;;;;;5059260;28;20411;-60
2022/07/26 09:53:45;;;;;;;7.38;2.38;;;22.10;99.90;;;;;;5075845;28;20028;-61
2022/07/26 09:56:12;;;;;;;5.32;2.60;;;21.90;99.90;;;;;;5076493;28;20060;-59
2022/07/26 09:58:39;;;;;;;3.10;1.90;;;21.60;99.90;;;;;;5076845;28;20097;-63
2022/07/26 10:01:06;;;;;;;3.15;1.98;;;21.40;99.90;;;;;;5076623;28;20048;-61
2022/07/26 10:03:33;;;;;;;3.47;2.03;;;20.90;99.90;;;;;;5076067;28;20036;-60
2022/07/26 10:06:02;;;;;;;4.50;2.58;;;20.40;99.90;;;;;;5076595;28;20052;-60
2022/07/26 10:08:29;;;;;;;4.32;2.60;;;20.20;99.90;;;;;;5076561;28;20300;-61
2022/07/26 10:11:03;;;;;;;3.25;2.30;;;20.10;99.90;;;;;;5075705;28;20042;-60
2022/07/26 10:13:30;;;;;;;4.68;2.40;;;20.00;99.90;;;;;;5075588;28;20098;-58
2022/07/26 10:15:55;;;;;;;3.40;2.40;;;19.90;99.90;;;;;;5076696;28;20293;-60
2022/07/26 10:18:36;;;;;;;4.65;2.40;;;19.90;99.90;;;;;;5076353;28;20036;-60
2022/07/26 10:21:22;;;;;;;3.22;1.98;;;20.10;99.90;;;;;;5076327;28;20411;-60
2022/07/26 10:23:59;;;;;;;2.35;1.58;;;20.30;99.90;;;;;;5076334;28;20032;-60
2022/07/26 10:26:30;;;;;;;2.47;1.65;;;20.50;99.90;;;;;;5077011;28;20036;-60
2022/07/26 10:29:14;;;;;;;2.80;1.67;;;20.60;99.90;;;;;;5076528;28;20131;-60
2022/07/26 10:31:40;;;;;;;2.72;1.75;;;20.60;99.90;;;;;;5076155;28;20052;-60
2022/07/26 10:34:07;;;;;;;5.55;2.05;;;20.90;99.90;;;;;;5076120;28;20335;-61
2022/07/26 10:36:36;;;;;;;3.55;1.38;;;21.10;99.90;;;;;;5075933;28;20130;-58
2022/07/26 10:39:05;;;;;;;1.73;1.15;;;21.40;99.90;;;;;;5077759;28;20021;-58
2022/07/26 10:41:46;;;;;;;2.13;1.33;;;21.80;99.90;;;;;;5079920;28;20025;-59
2022/07/26 10:44:40;;;;;;;2.53;1.40;;;22.10;99.90;;;;;;5079437;28;20412;-58
2022/07/26 10:47:06;;;;;;;2.95;1.50;;;22.70;99.90;;;;;;5079532;28;20074;-59
2022/07/26 10:49:51;;;;;;;2.63;1.23;;;23.20;99.90;;;;;;5079735;28;20110;-58
2022/07/26 10:52:23;;;;;;;3.58;1.52;;;23.80;99.90;;;;;;5079710;28;20044;-60
2022/07/26 10:54:58;;;;;;;2.28;1.20;;;24.20;99.90;;;;;;5079486;28;20033;-60
2022/07/26 10:57:27;;;;;;;1.75;1.00;;;24.50;99.90;;;;;;5078767;28;20055;-62
2022/07/26 10:59:56;;;;;;;1.58;1.08;;;25.10;99.90;;;;;;5062121;28;20114;-62
2022/07/26 11:02:27;;;;;;;1.77;0.70;;;25.70;99.90;;;;;;5079797;28;20048;-61
2022/07/26 11:05:14;;;;;;;1.02;0.60;;;26.00;99.90;;;;;;5061992;28;20408;-61
2022/07/26 11:07:57;;;;;;;1.27;0.73;;;25.90;99.90;;;;;;5078665;28;20036;-61
2022/07/26 11:10:32;;;;;;;1.98;0.80;;;25.00;99.90;;;;;;5079445;28;20047;-60
2022/07/26 11:13:17;;;;;;;7.93;1.63;;;23.90;99.90;;;;;;5079312;28;20036;-64
2022/07/26 11:16:05;;;;;;;1.58;1.30;;;22.50;99.90;;;;;;5079911;28;20285;-60
2022/07/26 11:18:36;;;;;;;1.23;1.00;;;21.10;99.90;;;;;;5079037;28;20301;-60
2022/07/26 11:21:09;;;;;;;2.92;1.95;;;20.30;99.90;;;;;;5061956;28;20377;-61
2022/07/26 11:23:37;;;;;;;3.97;2.10;;;19.40;99.90;;;;;;5079167;28;20032;-58
2022/07/26 11:26:21;;;;;;;4.00;3.22;;;19.20;99.90;;;;;;5079155;28;20292;-58
2022/07/26 11:28:55;;;;;;;6.90;5.18;;;19.20;99.90;;;;;;5078391;28;20380;-57
2022/07/26 11:31:27;;;;;;;6.80;4.28;;;19.40;99.90;;;;;;5079027;28;20032;-59
2022/07/26 11:33:54;;;;;;;;;;;19.40;99.90;;;;;;5079347;28;20029;-64
2022/07/26 11:36:40;;;;;;;5.90;3.70;;;19.10;99.90;;;;;;5078915;28;19920;-60
2022/07/26 11:39:13;;;;;;;5.72;3.50;;;19.00;99.90;;;;;;5078843;28;20028;-66
2022/07/26 11:41:41;;;;;;;5.93;3.70;;;18.90;99.90;;;;;;5079438;28;20048;-65
2022/07/26 11:44:19;;;;;;;5.78;4.65;;;18.70;99.90;;;;;;5078703;28;20137;-61
2022/07/26 11:46:48;;;;;;;7.07;4.40;;;18.90;99.90;;;;;;5078810;28;20116;-62
2022/07/26 11:49:22;;;;;;;6.00;4.20;;;18.80;99.90;;;;;;5078780;28;20028;-60
2022/07/26 11:52:02;;;;;;;5.30;3.90;;;18.80;99.90;;;;;;5077900;28;20063;-60
2022/07/26 11:54:41;;;;;;;4.18;3.50;;;18.80;99.90;;;;;;5077675;28;20039;-61
2022/07/26 11:57:07;;;;;;;3.67;2.63;;;18.90;99.90;;;;;;5078419;28;20045;-61
2022/07/26 11:59:36;;;;;;;3.80;3.05;;;19.10;99.90;;;;;;5077753;28;20029;-60
2022/07/26 12:02:07;;;;;;;3.22;2.10;;;19.10;99.90;;;;;;5078501;28;20025;-59
2022/07/26 12:04:38;;;;;;;4.20;2.20;;;19.30;99.90;;;;;;5078431;28;20045;-60
2022/07/26 12:07:20;;;;;;;3.08;2.28;;;19.40;99.90;;;;;;5078339;28;20097;-61
2022/07/26 12:09:49;;;;;;;4.40;2.30;;;19.60;99.90;;;;;;5078294;28;20365;-60
2022/07/26 12:12:27;;;;;;;3.47;2.80;;;19.60;99.90;;;;;;5078223;28;20036;-60
2022/07/26 12:15:04;;;;;;;3.70;2.08;;;19.80;99.90;;;;;;5078187;28;20056;-61
2022/07/26 12:17:31;;;;;;;2.40;2.15;;;19.80;99.90;;;;;;5078457;28;20032;-61
2022/07/26 12:20:13;;;;;;;5.85;2.47;;;19.70;99.90;;;;;;5078033;28;20024;-61
2022/07/26 12:22:40;;;;;;;3.20;2.30;;;19.60;99.90;;;;;;5078060;28;20304;-60
2022/07/26 12:25:06;;;;;;;3.05;2.33;;;19.60;99.90;;;;;;5077988;28;20093;-59
2022/07/26 12:27:33;;;;;;;2.85;2.50;;;19.50;99.90;;;;;;5077932;28;20032;-60
2022/07/26 12:30:01;;;;;;;5.05;2.42;;;19.40;99.90;;;;;;5077864;28;20063;-59
2022/07/26 12:32:34;;;;;;;4.40;3.25;;;19.40;99.90;;;;;;5077819;28;20033;-61
2022/07/26 12:35:01;;;;;;;4.30;3.47;;;19.50;99.90;;;;;;5077751;28;20292;-59
2022/07/26 12:37:29;;;;;;;3.90;2.72;;;19.40;99.90;;;;;;5077775;28;20108;-61
2022/07/26 12:40:06;;;;;;;4.57;3.13;;;19.30;99.90;;;;;;5077580;28;20135;-59
2022/07/26 12:42:35;;;;;;;3.55;2.67;;;19.20;99.90;;;;;;5077700;28;20052;-57
2022/07/26 12:45:02;;;;;;;4.90;2.55;;;19.10;99.90;;;;;;5077551;28;20051;-60
2022/07/26 12:47:28;;;;;;;4.80;2.88;;;19.20;99.90;;;;;;5077501;28;20037;-59